Time;durP1;ratioP1;P1;durP2;ratioP2;P2;SDS_P1;SDS_P2;PMS_P1;PMS_P2;Temp;Humidity;BMP_temperature;BMP_pressure;BME280_temperature;BME280_humidity;BME280_pressure;Samples;Min_cycle;Max_cycle;Signal;HPM_P1;HPM_P2
2021/09/23 00:01:44;;;;;;;5.72;5.00;;;;;;;13.82;50.27;99920.47;5052029;28;20086;-48
2021/09/23 00:04:20;;;;;;;6.00;5.20;;;;;;;13.42;51.89;99918.13;5051879;28;20496;-50
2021/09/23 00:06:46;;;;;;;6.90;4.85;;;;;;;13.33;52.25;99924.78;5051823;28;20025;-52
2021/09/23 00:09:12;;;;;;;7.05;4.93;;;;;;;13.04;52.86;99921.66;5051707;28;20052;-51
2021/09/23 00:11:37;;;;;;;6.28;5.38;;;;;;;13.01;53.42;99919.41;5052004;28;20021;-48
2021/09/23 00:14:03;;;;;;;5.78;4.97;;;;;;;13.19;52.48;99924.00;5051504;28;20461;-47
2021/09/23 00:16:28;;;;;;;6.00;5.38;;;;;;;13.27;52.23;99913.06;5051528;28;20548;-48
2021/09/23 00:18:54;;;;;;;6.30;5.32;;;;;;;13.40;52.00;99916.69;5051568;28;20028;-49
2021/09/23 00:21:19;;;;;;;7.68;5.38;;;;;;;13.30;51.80;99923.34;5050390;28;20086;-48
2021/09/23 00:23:45;;;;;;;6.57;5.15;;;;;;;13.11;52.65;99917.06;5051712;28;20094;-48
2021/09/23 00:26:12;;;;;;;6.38;5.47;;;;;;;13.14;53.10;99923.03;5051106;28;20025;-48
2021/09/23 00:28:37;;;;;;;6.72;5.43;;;;;;;13.06;52.96;99913.41;5051136;28;20033;-48
2021/09/23 00:31:03;;;;;;;7.05;5.97;;;;;;;13.25;52.54;99909.78;5051483;28;20024;-48
2021/09/23 00:33:28;;;;;;;7.53;6.10;;;;;;;13.11;52.81;99913.59;5051344;28;20025;-48
2021/09/23 00:35:54;;;;;;;6.38;5.68;;;;;;;13.19;53.08;99915.97;5050643;28;20052;-48
2021/09/23 00:38:19;;;;;;;7.25;6.05;;;;;;;13.42;52.53;99904.75;5051402;28;20090;-48
2021/09/23 00:40:45;;;;;;;7.72;6.45;;;;;;;13.09;52.77;99907.63;5050004;28;20477;-48
2021/09/23 00:43:10;;;;;;;8.88;6.32;;;;;;;13.15;52.67;99905.97;5050985;28;20017;-48
2021/09/23 00:45:36;;;;;;;8.13;6.30;;;;;;;13.11;53.13;99911.72;5051060;28;20488;-49
2021/09/23 00:48:01;;;;;;;8.50;6.47;;;;;;;13.13;53.22;99906.16;5050689;28;20053;-48
2021/09/23 00:50:28;;;;;;;8.25;6.55;;;;;;;13.22;52.98;99910.22;5050760;28;20059;-47
2021/09/23 00:52:54;;;;;;;8.52;6.28;;;;;;;13.44;52.62;99908.03;5050911;28;20392;-47
2021/09/23 00:55:19;;;;;;;8.13;6.50;;;;;;;13.18;53.02;99903.66;5049800;28;20082;-47
2021/09/23 00:57:45;;;;;;;8.48;6.72;;;;;;;12.96;53.90;99905.88;5049604;28;20025;-48
2021/09/23 01:00:12;;;;;;;7.95;6.43;;;;;;;13.11;53.64;99911.72;5050828;28;20082;-47
2021/09/23 01:02:38;;;;;;;8.30;6.53;;;;;;;12.93;53.69;99908.13;5051267;28;20083;-48
2021/09/23 01:05:04;;;;;;;7.85;6.57;;;;;;;13.24;53.09;99912.69;5050737;28;20024;-49
2021/09/23 01:07:29;;;;;;;9.68;6.95;;;;;;;12.96;54.01;99911.19;5050868;28;20130;-47
2021/09/23 01:09:55;;;;;;;8.82;6.80;;;;;;;13.20;52.90;99914.16;5050700;28;20464;-48
2021/09/23 01:12:21;;;;;;;8.15;6.78;;;;;;;13.46;52.70;99916.66;5050718;28;20075;-47
2021/09/23 01:14:47;;;;;;;9.15;6.63;;;;;;;13.23;53.45;99917.22;5050703;28;20417;-47
2021/09/23 01:17:13;;;;;;;9.75;7.20;;;;;;;13.09;53.56;99911.13;5050627;28;20108;-47
2021/09/23 01:19:39;;;;;;;9.68;7.18;;;;;;;12.98;53.66;99927.84;5050547;28;20106;-48
2021/09/23 01:22:05;;;;;;;10.30;6.97;;;;;;;13.47;52.49;99914.78;5050577;28;20025;-46
2021/09/23 01:24:30;;;;;;;8.75;7.20;;;;;;;13.34;52.53;99921.06;5050421;28;20029;-47
2021/09/23 01:26:56;;;;;;;8.38;6.97;;;;;;;12.82;54.46;99917.66;5050394;28;20064;-47
2021/09/23 01:29:22;;;;;;;10.52;7.88;;;;;;;13.06;53.44;99918.75;5050155;28;20131;-47
2021/09/23 01:31:48;;;;;;;7.82;6.95;;;;;;;12.78;54.08;99932.50;5050182;28;20063;-48
2021/09/23 01:34:13;;;;;;;9.07;7.68;;;;;;;12.92;54.31;99931.38;5050597;28;20020;-47
2021/09/23 01:36:40;;;;;;;11.75;7.50;;;;;;;12.72;54.35;99931.50;5050320;28;20500;-47
2021/09/23 01:39:05;;;;;;;9.65;7.15;;;;;;;13.01;54.08;99931.94;5050116;28;20025;-47
2021/09/23 01:41:31;;;;;;;11.75;7.65;;;;;;;13.23;53.21;99933.25;5050093;28;20047;-50
2021/09/23 01:43:56;;;;;;;8.93;7.30;;;;;;;13.02;54.30;99934.41;5049979;28;20397;-51
2021/09/23 01:46:22;;;;;;;9.30;7.50;;;;;;;13.38;52.97;99930.28;5049975;28;20090;-49
2021/09/23 01:48:47;;;;;;;9.30;7.72;;;;;;;13.28;53.37;99922.72;5050008;28;20020;-47
2021/09/23 01:51:12;;;;;;;9.77;7.88;;;;;;;13.01;54.17;99930.09;5050193;28;20036;-48
2021/09/23 01:53:38;;;;;;;8.98;7.53;;;;;;;13.01;53.86;99931.94;5050090;28;20033;-47
2021/09/23 01:56:03;;;;;;;9.38;7.53;;;;;;;13.07;53.27;99923.06;5049988;28;20025;-47
2021/09/23 01:58:29;;;;;;;10.02;7.25;;;;;;;13.03;53.73;99927.22;5050041;28;20017;-47
2021/09/23 02:00:54;;;;;;;8.68;7.50;;;;;;;13.19;53.28;99923.19;5049988;28;20035;-49
2021/09/23 02:03:20;;;;;;;8.18;6.80;;;;;;;13.26;53.08;99911.41;5050174;28;20032;-49
2021/09/23 02:05:45;;;;;;;8.70;7.30;;;;;;;13.53;52.09;99913.91;5050098;28;20032;-47
2021/09/23 02:08:11;;;;;;;8.68;7.25;;;;;;;13.58;51.82;99915.94;5050187;28;20400;-48
2021/09/23 02:10:36;;;;;;;9.55;7.40;;;;;;;13.40;52.81;99908.69;5049863;28;20040;-47
2021/09/23 02:13:02;;;;;;;8.90;7.25;;;;;;;13.13;53.62;99916.03;5049539;28;20049;-47
2021/09/23 02:15:27;;;;;;;8.50;6.85;;;;;;;13.13;53.23;99900.00;5050074;28;20100;-47
2021/09/23 02:17:53;;;;;;;11.63;7.50;;;;;;;13.36;52.88;99910.16;5049857;28;20131;-48
2021/09/23 02:20:18;;;;;;;10.00;7.63;;;;;;;13.46;52.22;99905.97;5049807;28;20021;-48
2021/09/23 02:22:45;;;;;;;9.20;7.50;;;;;;;13.00;53.15;99916.94;5050027;28;20036;-48
2021/09/23 02:25:11;;;;;;;8.57;7.30;;;;;;;13.11;53.07;99909.03;5049533;28;20397;-48
2021/09/23 02:27:36;;;;;;;9.57;7.43;;;;;;;13.36;51.96;99894.94;5049801;28;20028;-48
2021/09/23 02:30:03;;;;;;;9.10;7.05;;;;;;;13.63;50.89;99900.03;5049858;28;20033;-48
2021/09/23 02:32:29;;;;;;;9.85;7.25;;;;;;;13.20;52.37;99898.94;5049681;28;20049;-48
2021/09/23 02:34:56;;;;;;;8.73;6.97;;;;;;;13.15;52.54;99906.75;5048335;28;20123;-47
2021/09/23 02:37:22;;;;;;;8.60;7.07;;;;;;;13.05;53.17;99898.41;5049629;28;20032;-48
2021/09/23 02:39:48;;;;;;;7.72;6.75;;;;;;;13.03;52.80;99906.66;5049610;28;20024;-48
2021/09/23 02:42:13;;;;;;;7.85;6.75;;;;;;;13.16;52.24;99903.06;5049800;28;20028;-48
2021/09/23 02:44:39;;;;;;;7.85;6.78;;;;;;;13.33;51.99;99911.41;5049532;28;20044;-47
2021/09/23 02:47:04;;;;;;;9.85;6.65;;;;;;;13.00;52.97;99907.06;5049787;28;20025;-51
2021/09/23 02:49:30;;;;;;;8.95;6.63;;;;;;;13.43;51.27;99901.03;5049490;28;20408;-49
2021/09/23 02:51:55;;;;;;;8.18;6.72;;;;;;;13.70;51.13;99895.47;5049901;28;20091;-49
2021/09/23 02:54:21;;;;;;;8.20;6.88;;;;;;;13.41;51.99;99897.78;5049468;28;20396;-50
2021/09/23 02:56:46;;;;;;;9.05;6.68;;;;;;;13.09;52.39;99887.06;5049318;28;20029;-48
2021/09/23 02:59:12;;;;;;;8.27;6.75;;;;;;;12.81;53.10;99903.50;5050900;28;20028;-49
2021/09/23 03:01:37;;;;;;;9.10;7.13;;;;;;;12.86;53.04;99892.97;5052893;28;20442;-50
2021/09/23 03:04:03;;;;;;;9.20;7.30;;;;;;;12.77;53.50;99880.91;5052949;28;20025;-49
2021/09/23 03:06:28;;;;;;;9.25;7.03;;;;;;;12.89;53.35;99889.91;5051880;28;20089;-49
2021/09/23 03:08:54;;;;;;;20.75;12.85;;;;;;;12.61;53.87;99886.78;5052670;28;20028;-47
2021/09/23 03:11:19;;;;;;;61.42;36.17;;;;;;;12.83;53.39;99890.75;5053310;28;20124;-50
2021/09/23 03:13:45;;;;;;;85.28;49.30;;;;;;;12.71;54.35;99887.94;5052660;28;20462;-49
2021/09/23 03:16:10;;;;;;;9.52;7.57;;;;;;;12.97;53.06;99893.34;5053020;28;20029;-47
2021/09/23 03:18:35;;;;;;;9.07;6.88;;;;;;;13.05;52.88;99891.22;5052981;28;20032;-48
2021/09/23 03:21:03;;;;;;;9.95;7.50;;;;;;;13.01;53.25;99889.22;5052486;28;20028;-48
2021/09/23 03:23:28;;;;;;;7.55;6.53;;;;;;;12.90;53.59;99893.38;5052585;28;20024;-48
2021/09/23 03:25:54;;;;;;;9.23;7.03;;;;;;;12.96;53.21;99897.03;5052200;28;20044;-48
2021/09/23 03:28:19;;;;;;;9.43;7.38;;;;;;;12.95;53.65;99896.22;5051204;28;20087;-50
2021/09/23 03:30:45;;;;;;;10.45;7.45;;;;;;;12.98;52.91;99865.59;5050775;28;20036;-51
2021/09/23 03:33:10;;;;;;;10.23;7.20;;;;;;;12.79;53.27;99892.19;5049671;28;20021;-48
2021/09/23 03:35:36;;;;;;;11.23;8.80;;;;;;;12.69;54.39;99899.88;5050582;28;20129;-48
2021/09/23 03:38:03;;;;;;;21.08;12.77;;;;;;;12.85;54.19;99901.19;5051022;28;20024;-47
2021/09/23 03:40:28;;;;;;;12.90;8.88;;;;;;;12.95;54.18;99909.59;5050324;28;20513;-48
2021/09/23 03:42:53;;;;;;;10.52;7.95;;;;;;;12.99;54.00;99916.13;5050584;28;20078;-52
2021/09/23 03:45:19;;;;;;;12.98;7.88;;;;;;;12.79;54.55;99908.22;5050706;28;20025;-49
2021/09/23 03:47:45;;;;;;;10.32;7.50;;;;;;;12.67;54.82;99917.94;5050937;28;20127;-49
2021/09/23 03:50:11;;;;;;;12.65;7.60;;;;;;;13.27;53.41;99922.94;5050830;28;20480;-48
2021/09/23 03:52:36;;;;;;;12.32;7.68;;;;;;;13.33;53.10;99926.59;5050898;28;20028;-48
2021/09/23 03:55:02;;;;;;;11.20;7.15;;;;;;;13.00;53.89;99923.09;5051821;28;20036;-48
2021/09/23 03:57:28;;;;;;;11.85;7.20;;;;;;;13.22;53.33;99918.22;5052104;28;20095;-48
2021/09/23 03:59:53;;;;;;;12.23;7.47;;;;;;;13.15;53.63;99922.00;5052084;28;20025;-49
2021/09/23 04:02:19;;;;;;;10.32;7.28;;;;;;;13.15;53.74;99917.44;5051692;28;20029;-47
2021/09/23 04:04:45;;;;;;;13.05;7.85;;;;;;;13.27;53.80;99915.75;5052019;28;20028;-49
2021/09/23 04:07:10;;;;;;;20.67;14.88;;;;;;;13.34;53.64;99918.38;5052196;28;20036;-50
2021/09/23 04:09:36;;;;;;;22.20;13.45;;;;;;;13.45;53.11;99933.72;5051047;28;20390;-48
2021/09/23 04:12:01;;;;;;;20.40;12.93;;;;;;;13.34;53.54;99923.72;5051308;28;20568;-49
2021/09/23 04:14:27;;;;;;;29.33;18.08;;;;;;;13.36;53.11;99931.53;5051576;28;20053;-50
2021/09/23 04:16:52;;;;;;;10.80;8.00;;;;;;;13.24;53.73;99932.19;5051820;28;20029;-51
2021/09/23 04:19:18;;;;;;;10.40;7.50;;;;;;;13.25;54.14;99930.34;5051971;28;20025;-50
2021/09/23 04:21:44;;;;;;;9.98;7.80;;;;;;;13.56;52.81;99926.84;5051642;28;20044;-48
2021/09/23 04:24:09;;;;;;;11.88;7.68;;;;;;;13.60;52.67;99932.59;5051727;28;20037;-48
2021/09/23 04:26:35;;;;;;;10.90;7.30;;;;;;;14.00;51.85;99943.72;5051459;28;20029;-48
2021/09/23 04:29:01;;;;;;;12.05;7.70;;;;;;;14.07;51.34;99932.97;5041829;28;20428;-49
2021/09/23 04:31:26;;;;;;;12.20;7.90;;;;;;;14.02;51.42;99928.28;5049805;28;20059;-51
2021/09/23 04:33:52;;;;;;;10.05;7.43;;;;;;;14.13;51.91;99928.59;5051871;28;20029;-50
2021/09/23 04:36:17;;;;;;;9.85;7.07;;;;;;;14.12;51.34;99935.78;5051951;28;20024;-51
2021/09/23 04:38:43;;;;;;;9.75;6.97;;;;;;;14.24;51.01;99933.19;5051556;28;20024;-49
2021/09/23 04:41:11;;;;;;;10.50;7.35;;;;;;;14.52;50.76;99929.19;5050348;28;20082;-51
2021/09/23 04:43:37;;;;;;;26.40;16.88;;;;;;;14.69;50.08;99935.56;5051650;28;20020;-51
2021/09/23 04:46:02;;;;;;;12.18;7.72;;;;;;;14.75;49.71;99933.84;5051502;28;20025;-50
2021/09/23 04:48:28;;;;;;;9.98;7.25;;;;;;;15.14;48.58;99931.69;5051111;28;20025;-50
2021/09/23 04:50:53;;;;;;;8.98;6.80;;;;;;;15.62;47.78;99930.72;5050168;28;20040;-51
2021/09/23 04:53:19;;;;;;;11.82;6.90;;;;;;;15.85;47.55;99938.00;5051475;28;20055;-47
2021/09/23 04:55:44;;;;;;;13.40;7.28;;;;;;;16.08;46.47;99939.84;5051201;28;20445;-51
2021/09/23 04:58:10;;;;;;;8.40;6.80;;;;;;;15.81;46.54;99945.69;5050786;28;20476;-50
2021/09/23 05:00:35;;;;;;;8.25;6.57;;;;;;;16.39;45.54;99946.69;5051708;28;20079;-48
2021/09/23 05:03:00;;;;;;;8.77;6.70;;;;;;;16.54;45.71;99954.22;5051500;28;20062;-48
2021/09/23 05:05:27;;;;;;;12.85;9.98;;;;;;;16.84;45.22;99963.19;5051576;28;20028;-49
2021/09/23 05:07:53;;;;;;;11.25;8.73;;;;;;;16.25;45.76;99968.66;5033441;28;20037;-49
2021/09/23 05:10:18;;;;;;;8.27;6.45;;;;;;;16.25;45.51;99965.97;5051475;28;20055;-48
2021/09/23 05:12:44;;;;;;;11.20;8.13;;;;;;;16.40;45.89;99971.69;5033268;28;20477;-51
2021/09/23 05:15:12;;;;;;;9.68;6.47;;;;;;;16.73;45.14;99976.38;5031127;28;20444;-49
2021/09/23 05:17:37;;;;;;;7.72;5.63;;;;;;;16.38;45.83;99985.34;5029728;28;20037;-49
2021/09/23 05:20:03;;;;;;;8.18;6.03;;;;;;;16.29;45.76;99986.75;5039118;28;20021;-48
2021/09/23 05:22:29;;;;;;;7.78;6.13;;;;;;;16.56;45.43;99978.19;5050414;28;20036;-50
2021/09/23 05:24:54;;;;;;;7.95;5.95;;;;;;;16.70;45.98;99987.63;5049259;28;20405;-49
2021/09/23 05:27:20;;;;;;;8.95;5.57;;;;;;;15.98;45.99;99986.06;5048410;28;20048;-49
2021/09/23 05:29:45;;;;;;;7.93;6.22;;;;;;;16.45;45.72;99995.13;5048393;28;20021;-50
2021/09/23 05:32:11;;;;;;;11.80;6.63;;;;;;;16.11;46.30;99989.59;5048527;28;20032;-49
2021/09/23 05:34:37;;;;;;;7.97;5.80;;;;;;;16.04;46.83;99997.72;5048333;28;20378;-51
2021/09/23 05:37:03;;;;;;;13.90;6.32;;;;;;;15.96;46.44;100001.59;5048286;28;20032;-48
2021/09/23 05:39:28;;;;;;;9.65;7.25;;;;;;;15.97;46.63;100005.06;5048574;28;20037;-48
2021/09/23 05:41:54;;;;;;;7.65;6.32;;;;;;;15.95;46.83;100005.31;5048427;28;20457;-49
2021/09/23 05:44:23;;;;;;;7.68;5.72;;;;;;;16.10;46.05;100018.28;5048835;28;20025;-50
2021/09/23 05:46:53;;;;;;;7.97;5.38;;;;;;;15.70;47.11;100010.03;5050234;28;20033;-51
2021/09/23 05:49:19;;;;;;;;;;;;;;;16.09;46.47;100019.34;5050197;28;20052;-48
2021/09/23 05:51:44;;;;;;;8.35;5.30;;;;;;;15.97;46.66;100015.81;5049634;28;19909;-51
2021/09/23 05:54:10;;;;;;;7.20;5.30;;;;;;;15.99;46.85;100019.91;5049981;28;20028;-48
2021/09/23 05:56:36;;;;;;;7.18;5.43;;;;;;;16.27;46.48;100018.38;5050114;28;20064;-48
2021/09/23 05:59:01;;;;;;;6.10;4.88;;;;;;;16.78;45.73;100026.75;5049874;28;20449;-49
2021/09/23 06:01:27;;;;;;;9.23;5.25;;;;;;;16.33;46.75;100028.19;5049855;28;20086;-50
2021/09/23 06:03:52;;;;;;;5.63;4.68;;;;;;;16.66;45.84;100032.16;5049526;28;20452;-50
2021/09/23 06:06:17;;;;;;;6.40;4.82;;;;;;;16.94;44.89;100034.06;5049649;28;20448;-50
2021/09/23 06:08:43;;;;;;;12.20;5.55;;;;;;;17.24;44.15;100034.94;5049475;28;20131;-47
2021/09/23 06:11:11;;;;;;;16.70;5.25;;;;;;;17.27;44.35;100039.81;5049927;28;20033;-48
2021/09/23 06:13:37;;;;;;;16.05;5.85;;;;;;;17.67;44.07;100034.34;5049867;28;20505;-48
2021/09/23 06:16:03;;;;;;;13.32;9.32;;;;;;;17.56;44.09;100033.34;5049773;28;20059;-49
2021/09/23 06:18:28;;;;;;;7.80;4.57;;;;;;;18.06;42.88;100014.81;5049862;28;20013;-51
2021/09/23 06:20:54;;;;;;;5.80;4.65;;;;;;;18.87;41.57;100022.41;5049580;28;20104;-48
2021/09/23 06:23:19;;;;;;;5.50;4.50;;;;;;;19.39;40.31;100035.38;5049718;28;20067;-48
2021/09/23 06:25:45;;;;;;;5.95;4.55;;;;;;;19.74;39.49;100036.81;5049718;28;20493;-49
2021/09/23 06:28:11;;;;;;;5.55;4.20;;;;;;;19.97;38.90;100032.97;5049441;28;20040;-50
2021/09/23 06:30:37;;;;;;;5.70;4.15;;;;;;;19.70;39.27;100039.19;5049421;28;20131;-50
2021/09/23 06:33:02;;;;;;;5.93;4.40;;;;;;;20.09;39.02;100044.38;5049783;28;20451;-48
2021/09/23 06:35:28;;;;;;;8.30;4.82;;;;;;;20.29;38.52;100051.78;5053568;28;20029;-47
2021/09/23 06:37:53;;;;;;;6.75;4.60;;;;;;;19.48;39.66;100051.94;5053173;28;20536;-48
2021/09/23 06:40:19;;;;;;;5.97;3.90;;;;;;;19.81;39.29;100050.91;5053418;28;20033;-50
2021/09/23 06:42:44;;;;;;;6.43;4.60;;;;;;;20.30;38.70;100050.75;5053095;28;20052;-48
2021/09/23 06:45:10;;;;;;;5.05;3.88;;;;;;;20.69;37.63;100053.16;5053549;28;20029;-48
2021/09/23 06:47:36;;;;;;;12.65;3.95;;;;;;;21.41;36.40;100055.28;5051827;28;20029;-51
2021/09/23 06:50:02;;;;;;;5.93;3.08;;;;;;;20.95;36.30;100030.81;5052896;28;20056;-50
2021/09/23 06:52:28;;;;;;;6.65;3.38;;;;;;;20.69;36.58;100047.75;5053209;28;20192;-48
2021/09/23 06:54:54;;;;;;;3.40;3.10;;;;;;;20.77;36.80;100054.56;5053134;28;20385;-49
2021/09/23 06:57:19;;;;;;;3.45;3.00;;;;;;;21.58;35.58;100055.88;5053114;28;20517;-49
2021/09/23 06:59:45;;;;;;;4.47;3.20;;;;;;;22.05;35.12;100054.81;5053245;28;20017;-50
2021/09/23 07:02:10;;;;;;;4.13;3.13;;;;;;;22.89;33.47;100056.28;5052706;28;20111;-50
2021/09/23 07:04:36;;;;;;;5.28;2.80;;;;;;;22.97;32.69;100053.00;5052718;28;20044;-47
2021/09/23 07:07:01;;;;;;;4.35;2.75;;;;;;;22.68;33.48;100060.97;5053200;28;20100;-49
2021/09/23 07:09:27;;;;;;;5.03;3.00;;;;;;;22.49;33.77;100061.56;5053027;28;20130;-48
2021/09/23 07:11:52;;;;;;;4.70;2.97;;;;;;;22.61;33.29;100062.06;5052854;28;20033;-47
2021/09/23 07:14:17;;;;;;;3.10;2.70;;;;;;;23.14;32.07;100063.53;5052977;28;20461;-48
2021/09/23 07:16:43;;;;;;;3.15;2.72;;;;;;;23.21;31.71;100054.00;5052990;28;20032;-46
2021/09/23 07:19:08;;;;;;;3.97;2.90;;;;;;;23.51;31.19;100054.06;5052539;28;20114;-50
2021/09/23 07:21:34;;;;;;;3.30;2.60;;;;;;;22.49;32.42;100064.28;5052609;28;20051;-50
2021/09/23 07:23:59;;;;;;;6.07;2.60;;;;;;;21.93;33.49;100064.31;5052770;28;20036;-49
2021/09/23 07:26:25;;;;;;;5.05;2.58;;;;;;;22.44;32.77;100067.00;5052698;28;20024;-50
2021/09/23 07:28:50;;;;;;;2.90;2.50;;;;;;;21.91;33.54;100061.84;5052525;28;20451;-49
2021/09/23 07:31:16;;;;;;;3.45;2.70;;;;;;;21.76;33.77;100054.56;5053075;28;20029;-50
2021/09/23 07:33:44;;;;;;;3.70;2.55;;;;;;;20.92;35.20;100056.47;5052507;28;20037;-48
2021/09/23 07:36:10;;;;;;;6.70;2.40;;;;;;;21.17;34.53;100057.66;5052458;28;20460;-47
2021/09/23 07:38:36;;;;;;;2.72;2.47;;;;;;;22.29;32.81;100070.53;5052678;28;20028;-47
2021/09/23 07:41:01;;;;;;;3.72;2.33;;;;;;;22.80;32.23;100062.28;5052444;28;20067;-47
2021/09/23 07:43:27;;;;;;;2.70;2.45;;;;;;;22.04;32.96;100063.22;5050994;28;20025;-50
2021/09/23 07:45:52;;;;;;;3.55;2.50;;;;;;;21.27;33.34;100076.66;5051862;28;20025;-49
2021/09/23 07:48:18;;;;;;;2.55;2.30;;;;;;;20.94;34.02;100070.56;5052374;28;20090;-49
2021/09/23 07:50:43;;;;;;;3.50;2.28;;;;;;;19.87;35.47;100068.78;5051771;28;20024;-48
2021/09/23 07:53:09;;;;;;;2.88;2.30;;;;;;;19.49;35.84;100069.75;5051965;28;20036;-48
2021/09/23 07:55:34;;;;;;;3.15;2.50;;;;;;;19.23;36.09;100074.03;5052374;28;20099;-47
2021/09/23 07:58:00;;;;;;;3.55;2.58;;;;;;;19.90;35.53;100076.38;5052307;28;20029;-49
2021/09/23 08:00:26;;;;;;;4.93;2.60;;;;;;;20.69;35.18;100073.97;5051973;28;20040;-50
2021/09/23 08:02:52;;;;;;;3.97;2.33;;;;;;;21.03;34.54;100065.47;5051963;28;20025;-48
2021/09/23 08:05:17;;;;;;;2.72;2.50;;;;;;;21.80;33.59;100074.59;5051679;28;20067;-47
2021/09/23 08:07:48;;;;;;;4.88;2.78;;;;;;;21.48;33.83;100064.81;5052013;28;20060;-48
2021/09/23 08:10:14;;;;;;;3.63;2.40;;;;;;;22.10;32.38;100055.91;5050584;28;20028;-47
2021/09/23 08:12:40;;;;;;;3.30;2.33;;;;;;;21.56;32.53;100057.25;5051693;28;20037;-47
2021/09/23 08:15:05;;;;;;;4.35;2.53;;;;;;;21.06;32.90;100065.75;5051620;28;20032;-50
2021/09/23 08:17:31;;;;;;;3.85;2.45;;;;;;;21.28;33.15;100052.03;5052015;28;20052;-48
2021/09/23 08:19:57;;;;;;;4.10;2.50;;;;;;;22.17;31.86;100065.38;5051756;28;20131;-48
2021/09/23 08:22:22;;;;;;;5.63;2.42;;;;;;;22.14;31.57;100054.25;5051360;28;20029;-50
2021/09/23 08:24:48;;;;;;;2.90;2.50;;;;;;;22.85;30.91;100056.03;5051566;28;20040;-48
2021/09/23 08:27:13;;;;;;;3.17;2.50;;;;;;;23.26;30.72;100068.63;5051691;28;20029;-49
2021/09/23 08:29:39;;;;;;;4.10;2.30;;;;;;;23.08;30.08;100060.03;5051377;28;20123;-49
2021/09/23 08:32:04;;;;;;;3.30;2.40;;;;;;;22.59;30.81;100058.81;5051650;28;20094;-48
2021/09/23 08:34:30;;;;;;;3.17;2.80;;;;;;;22.19;31.61;100062.41;5051609;28;20049;-48
2021/09/23 08:36:55;;;;;;;3.83;2.65;;;;;;;22.67;31.14;100059.34;5051007;28;20083;-50
2021/09/23 08:39:21;;;;;;;3.63;2.42;;;;;;;21.40;32.39;100050.94;5051581;28;20033;-48
2021/09/23 08:41:49;;;;;;;2.85;2.40;;;;;;;21.50;31.77;100059.13;5050947;28;20029;-51
2021/09/23 08:44:14;;;;;;;2.78;2.30;;;;;;;21.14;32.61;100058.22;5051017;28;20048;-47
2021/09/23 08:46:40;;;;;;;2.50;2.10;;;;;;;20.68;32.94;100048.81;5049768;28;20401;-49
2021/09/23 08:49:05;;;;;;;4.78;2.40;;;;;;;21.01;33.24;100037.88;5051063;28;20032;-47
2021/09/23 08:51:31;;;;;;;4.28;2.40;;;;;;;21.65;32.07;100009.59;5051107;28;20091;-50
2021/09/23 08:53:56;;;;;;;3.70;2.72;;;;;;;22.77;30.60;100037.59;5050583;28;20051;-47
2021/09/23 08:56:23;;;;;;;2.72;2.40;;;;;;;22.48;31.02;100048.28;5050105;28;20397;-50
2021/09/23 08:58:49;;;;;;;2.88;2.33;;;;;;;21.56;31.69;100046.41;5050492;28;20369;-48
2021/09/23 09:01:18;;;;;;;3.53;2.42;;;;;;;21.63;31.39;100044.25;5049442;28;20095;-49
2021/09/23 09:03:44;;;;;;;3.15;2.65;;;;;;;21.69;31.62;100045.88;5050458;28;20025;-48
2021/09/23 09:06:13;;;;;;;3.85;2.30;;;;;;;21.37;31.91;100049.59;5050662;28;20120;-46
2021/09/23 09:08:42;;;;;;;3.20;2.50;;;;;;;21.60;31.28;100034.78;5050312;28;20021;-50
2021/09/23 09:11:12;;;;;;;3.72;2.35;;;;;;;21.70;31.60;100036.66;5050473;28;20126;-51
2021/09/23 09:13:41;;;;;;;2.90;2.35;;;;;;;21.78;31.71;100038.84;5049630;28;20180;-50
2021/09/23 09:16:09;;;;;;;2.75;2.28;;;;;;;21.65;31.67;100036.69;5050109;28;20457;-47
2021/09/23 09:18:35;;;;;;;3.50;2.30;;;;;;;21.25;31.66;100032.81;5050537;28;20024;-48
2021/09/23 09:21:12;;;;;;;4.97;2.30;;;;;;;21.45;31.53;100040.97;5049981;28;20087;-50
2021/09/23 09:23:57;;;;;;;3.85;2.10;;;;;;;21.58;31.51;100030.72;5050131;28;20124;-49
2021/09/23 09:26:25;;;;;;;3.00;2.30;;;;;;;21.63;31.42;100031.53;5050385;28;20126;-48
2021/09/23 09:28:52;;;;;;;6.05;2.25;;;;;;;21.71;30.54;100022.06;5050055;28;20033;-47
2021/09/23 09:31:18;;;;;;;6.13;2.50;;;;;;;22.21;30.60;100025.78;5050153;28;20117;-47
2021/09/23 09:33:44;;;;;;;4.07;2.50;;;;;;;22.01;30.39;100033.97;5049692;28;20033;-49
2021/09/23 09:36:48;;;;;;;2.30;2.10;;;;;;;21.75;30.12;100023.13;5050297;28;20029;-49
2021/09/23 09:39:16;;;;;;;3.42;2.30;;;;;;;22.18;30.56;100028.25;5028892;28;20102;-49
2021/09/23 09:41:43;;;;;;;2.40;2.20;;;;;;;21.66;30.91;100030.16;5050196;28;20037;-50
2021/09/23 09:44:11;;;;;;;2.90;2.30;;;;;;;21.97;31.08;100022.88;5050001;28;20066;-49
2021/09/23 09:46:52;;;;;;;3.85;2.30;;;;;;;21.48;31.68;100018.78;5049949;28;20048;-48
2021/09/23 09:49:20;;;;;;;6.03;2.35;;;;;;;22.46;30.05;100010.59;5049937;28;20036;-50
2021/09/23 09:51:47;;;;;;;4.22;2.10;;;;;;;22.24;29.60;99997.34;5049689;28;20039;-47
2021/09/23 09:54:14;;;;;;;4.10;2.53;;;;;;;21.69;30.51;100021.50;5050220;28;20029;-50
2021/09/23 09:56:41;;;;;;;2.42;2.20;;;;;;;21.38;31.12;100018.75;5049221;28;20036;-48
2021/09/23 09:59:13;;;;;;;2.55;2.13;;;;;;;22.20;30.18;100018.78;5049767;28;20020;-49
2021/09/23 10:01:45;;;;;;;9.18;2.28;;;;;;;22.08;30.56;100018.22;5050198;28;20025;-49
2021/09/23 10:04:11;;;;;;;4.55;2.03;;;;;;;21.09;31.28;100018.41;5049712;28;20029;-50
2021/09/23 10:06:38;;;;;;;3.25;2.33;;;;;;;21.20;30.94;100011.94;5049933;28;20076;-47
2021/09/23 10:09:03;;;;;;;5.93;2.20;;;;;;;22.60;29.90;100006.22;5051481;28;20032;-47
2021/09/23 10:11:29;;;;;;;4.50;2.50;;;;;;;22.15;30.10;100010.63;5054232;28;20033;-51
2021/09/23 10:13:54;;;;;;;4.18;2.17;;;;;;;22.20;29.69;99996.25;5035716;28;20053;-48
2021/09/23 10:16:20;;;;;;;2.50;2.20;;;;;;;22.28;29.40;99984.09;5035843;28;20478;-48
2021/09/23 10:18:46;;;;;;;2.90;2.30;;;;;;;22.67;29.16;99996.97;5035912;28;20040;-48
2021/09/23 10:21:11;;;;;;;3.40;2.30;;;;;;;22.71;29.43;99995.31;5032416;28;20563;-50
2021/09/23 10:23:40;;;;;;;7.38;2.40;;;;;;;22.63;29.44;99980.44;5033883;28;20029;-49
2021/09/23 10:26:10;;;;;;;2.40;2.20;;;;;;;22.71;29.47;100003.44;5032410;28;20033;-50
2021/09/23 10:28:35;;;;;;;2.70;2.30;;;;;;;22.90;29.02;99998.22;5049111;28;20459;-47
2021/09/23 10:31:04;;;;;;;4.55;2.17;;;;;;;22.64;29.43;99991.00;5053749;28;20091;-48
2021/09/23 10:33:29;;;;;;;3.27;2.47;;;;;;;22.93;28.68;99989.53;5053502;28;20025;-47
2021/09/23 10:35:55;;;;;;;2.72;2.13;;;;;;;22.82;28.50;99992.28;5053788;28;20290;-49
2021/09/23 10:38:20;;;;;;;5.25;2.25;;;;;;;23.19;28.00;99993.75;5051929;28;20422;-50
2021/09/23 10:40:46;;;;;;;3.70;2.30;;;;;;;23.34;27.89;99976.53;5052797;28;20025;-47
2021/09/23 10:43:16;;;;;;;2.50;2.30;;;;;;;23.73;27.71;99983.03;5053148;28;20025;-48
2021/09/23 10:45:42;;;;;;;2.50;2.30;;;;;;;22.64;28.88;99980.16;5052953;28;20029;-50
2021/09/23 10:48:08;;;;;;;6.05;2.10;;;;;;;22.21;29.56;99973.50;5053503;28;20115;-51
2021/09/23 10:50:34;;;;;;;4.68;2.33;;;;;;;22.61;28.32;99967.13;5035603;28;20097;-49
2021/09/23 10:53:00;;;;;;;2.50;2.20;;;;;;;22.89;28.29;99973.00;5053686;28;20059;-48
2021/09/23 10:55:27;;;;;;;3.47;2.20;;;;;;;22.35;28.51;99965.63;5053258;28;20405;-47
2021/09/23 10:57:53;;;;;;;2.30;2.05;;;;;;;22.82;27.87;99967.84;5053151;28;20063;-49
2021/09/23 11:00:22;;;;;;;3.10;2.20;;;;;;;22.92;28.21;99964.28;5053282;28;20071;-47
2021/09/23 11:02:48;;;;;;;2.72;2.17;;;;;;;22.54;28.91;99966.66;5052115;28;20082;-48
2021/09/23 11:05:14;;;;;;;2.58;2.10;;;;;;;23.85;27.33;99955.50;5034870;28;20151;-47
2021/09/23 11:07:44;;;;;;;3.78;2.33;;;;;;;23.95;26.72;99964.38;5035829;28;20102;-48
2021/09/23 11:10:10;;;;;;;;;;;;;;;23.86;26.68;99962.56;5053803;28;20451;-48
2021/09/23 11:12:36;;;;;;;3.22;1.95;;;;;;;23.19;27.20;99958.44;5052844;28;20015;-48
2021/09/23 11:15:03;;;;;;;3.22;2.22;;;;;;;23.57;26.70;99958.72;5052678;28;20045;-51
2021/09/23 11:17:28;;;;;;;5.53;2.10;;;;;;;23.19;27.31;99955.75;5052420;28;20035;-49
2021/09/23 11:20:06;;;;;;;3.75;1.95;;;;;;;22.86;28.02;99954.53;5050658;28;20021;-50
2021/09/23 11:22:37;;;;;;;3.88;2.00;;;;;;;23.76;26.71;99950.66;5052735;28;20211;-49
2021/09/23 11:25:08;;;;;;;3.30;1.92;;;;;;;23.60;26.72;99951.88;5052531;28;20025;-49